ADDS METAR Data INFO
IDs: Format: Raw Decoded Include TAF

Data at: 2255 UTC 22 Jun 2018

KD55 222255Z AUTO 32007KT 10SM CLR 26/18 A2977 RMK AO2
KD55 222235Z AUTO 30004KT 10SM CLR 26/18 A2978 RMK AO2
KD55 222215Z AUTO 29005G10KT 10SM CLR 22/20 A2979 RMK AO2 LTG DSNT NE AND NW
KD55 222155Z AUTO 22003KT 10SM TS FEW017 FEW038 SCT120 22/20 A2978 RMK AO2 LTG DSNT ALQDS
KD55 222135Z AUTO 25008KT 10SM FEW047 SCT060 SCT070 22/17 A2980 RMK AO2 LTG DSNT NE AND SW AND W
KD55 222115Z AUTO 26007KT 10SM VCTS SCT060 SCT090 SCT120 24/19 A2981 RMK AO2 LTG DSNT N AND NE AND SW
KD55 222055Z AUTO 34003G15KT 10SM TS FEW095 SCT120 27/18 A2981 RMK AO2 LTG DSNT ALQDS
KD55 222035Z AUTO 14007KT 10SM BKN060 BKN095 26/18 A2981 RMK AO2
KD55 222015Z AUTO 09004KT 10SM SCT060 SCT070 BKN085 28/16 A2982 RMK AO2 LTG DSNT E AND NW
KD55 221955Z AUTO 05004KT 10SM VCTS FEW007 FEW034 SCT070 28/16 A2982 RMK AO2 LTG DSNT W
KD55 221935Z AUTO 06005KT 3SM -RA FEW008 SCT031 BKN046 24/19 A2983 RMK AO2
KD55 221915Z AUTO 15012KT 10SM 28/17 A2984 RMK AO2
KD55 221855Z AUTO 21009KT 10SM CLR 30/15 A2984 RMK AO2
KD55 221835Z AUTO VRB05KT 10SM CLR 30/15 A2984 RMK AO2
KD55 221815Z AUTO VRB03KT 10SM 31/15 A2985 RMK AO2
KD55 221615Z AUTO 27004KT 10SM SCT070 28/16 A2987 RMK AO2
KD55 221555Z AUTO 00000KT 10SM FEW070 FEW120 28/15 A2987 RMK AO2
KD55 221535Z AUTO 00000KT 10SM CLR 27/16 A2987 RMK AO2
KD55 221515Z AUTO 22005KT 10SM CLR 26/17 A2987 RMK AO2
KD55 221455Z AUTO 21005KT 10SM CLR 25/17 A2988 RMK AO2
KD55 221435Z AUTO 18005KT 10SM CLR 25/17 A2988 RMK AO2
KD55 221415Z AUTO 20004KT 10SM SCT090 BKN110 25/16 A2988 RMK AO2
KD55 221355Z AUTO 00000KT 10SM SCT090 BKN110 24/15 A2988 RMK AO2
KD55 221335Z AUTO 00000KT 10SM SCT090 BKN120 22/16 A2988 RMK AO2
KD55 221315Z AUTO 26005G11KT 10SM VCTS FEW090 FEW110 22/20 A2989 RMK AO2 LTG DSNT SW
KD55 221255Z AUTO 23004KT 10SM FEW075 FEW095 21/21 A2989 RMK AO2
KD55 221235Z AUTO 00000KT 10SM FEW070 20/20 A2989 RMK AO2
KD55 221215Z AUTO 00000KT 10SM SCT070 SCT085 19/19 A2989 RMK AO2
KD55 221155Z AUTO 24004KT 10SM SCT070 18/18 A2989 RMK AO2
KD55 221135Z AUTO 00000KT 10SM FEW110 18/18 A2989 RMK AO2
KD55 221115Z AUTO 00000KT 10SM BKN110 18/18 A2989 RMK AO2
KD55 221055Z AUTO 19004G11KT 10SM FEW040 SCT070 BKN110 18/18 A2990 RMK AO2
KD55 221035Z AUTO 00000KT 10SM FEW038 FEW046 BKN070 18/18 A2990 RMK AO2
KD55 221015Z AUTO 00000KT 10SM FEW070 BKN110 18/18 A2989 RMK AO2
KD55 220955Z AUTO 00000KT 10SM FEW070 SCT100 18/18 A2990 RMK AO2
KD55 220935Z AUTO 00000KT 10SM FEW120 18/18 A2990 RMK AO2
KD55 220915Z AUTO 00000KT 10SM SCT110 18/18 A2990 RMK AO2
KD55 220855Z AUTO 00000KT 10SM FEW110 18/18 A2990 RMK AO2
KD55 220835Z AUTO 00000KT 10SM CLR 18/18 A2991 RMK AO2
KD55 220815Z AUTO 14004KT 10SM CLR 18/18 A2991 RMK AO2
KD55 220755Z AUTO 00000KT 10SM CLR 17/17 A2991 RMK AO2
KD55 220735Z AUTO 17004KT 10SM CLR 18/18 A2991 RMK AO2
KD55 220715Z AUTO 00000KT 10SM CLR 17/17 A2991 RMK AO2
KD55 220655Z AUTO 19007KT 10SM CLR 16/16 A2991 RMK AO2
KD55 220635Z AUTO 18003KT 10SM CLR 17/17 A2991 RMK AO2
KD55 220615Z AUTO 21003KT 10SM CLR 17/17 A2991 RMK AO2
KD55 220555Z AUTO 20003KT 10SM CLR 18/18 A2991 RMK AO2
KD55 220535Z AUTO 00000KT 10SM CLR 18/18 A2992 RMK AO2
KD55 220515Z AUTO 00000KT 10SM CLR 19/19 A2991 RMK AO2
KD55 220455Z AUTO 00000KT 10SM CLR 19/19 A2992 RMK AO2
KD55 220435Z AUTO 11003KT 10SM CLR 18/18 A2992 RMK AO2
KD55 220415Z AUTO 11003KT 10SM CLR 18/18 A2993 RMK AO2
KD55 220355Z AUTO 00000KT 10SM CLR 19/19 A2993 RMK AO2
KD55 220335Z AUTO 07003KT 10SM CLR 20/19 A2993 RMK AO2
KD55 220315Z AUTO 00000KT 10SM CLR 21/20 A2993 RMK AO2
KD55 220255Z AUTO 00000KT 10SM CLR 21/20 A2992 RMK AO2
KD55 220235Z AUTO 34003KT 10SM CLR 22/19 A2992 RMK AO2
KD55 220215Z AUTO 00000KT 10SM CLR 24/17 A2992 RMK AO2
KD55 220155Z AUTO 32004KT 10SM CLR 24/18 A2992 RMK AO2
KD55 220135Z AUTO 31006KT 10SM CLR 25/17 A2992 RMK AO2
KD55 220115Z AUTO 31004KT 10SM CLR 26/18 A2992 RMK AO2
KD55 220055Z AUTO 30005KT 10SM CLR 26/17 A2992 RMK AO2
KD55 220035Z AUTO 30004KT 10SM CLR 27/17 A2992 RMK AO2
KD55 220015Z AUTO 31005KT 10SM CLR 28/16 A2992 RMK AO2
KD55 212355Z AUTO 30004KT 10SM CLR 29/14 A2992 RMK AO2
KD55 212335Z AUTO 00000KT 10SM CLR 28/14 A2993 RMK AO2
KD55 212315Z AUTO 26004KT 10SM CLR 29/13 A2993 RMK AO2
KD55 212255Z AUTO 00000KT 10SM FEW090 30/13 A2994 RMK AO2
KD55 212235Z AUTO 27003KT 10SM SCT070 BKN090 30/13 A2994 RMK AO2
KD55 212215Z AUTO 31004KT 10SM CLR 29/14 A2994 RMK AO2
KD55 212135Z AUTO 32004KT 10SM CLR 31/13 A2995 RMK AO2
KD55 212115Z AUTO 00000KT 10SM CLR 31/13 A2995 RMK AO2
KD55 212055Z AUTO 32005KT 10SM CLR 30/14 A2995 RMK AO2
KD55 212035Z AUTO 23003KT 10SM CLR 28/14 A2995 RMK AO2
KD55 212015Z AUTO 00000KT 10SM CLR 28/16 A2995 RMK AO2
KD55 211955Z AUTO VRB04KT 10SM FEW065 29/13 A2995 RMK AO2
KD55 211935Z AUTO 33005KT 10SM FEW065 FEW120 29/14 A2996 RMK AO2
KD55 211915Z AUTO VRB06KT 10SM BKN065 BKN120 29/13 A2996 RMK AO2
KD55 211855Z AUTO VRB03KT 10SM SCT065 30/13 A2997 RMK AO2
KD55 211835Z AUTO VRB03KT 10SM CLR 29/12 A2997 RMK AO2
KD55 211815Z AUTO 32005KT 10SM CLR 31/13 A2997 RMK AO2
KD55 211755Z AUTO 33005KT 10SM CLR 30/13 A2998 RMK AO2
KD55 211735Z AUTO 32004KT 10SM CLR 29/14 A2998 RMK AO2
KD55 211715Z AUTO 32003KT 10SM CLR 29/14 A2998 RMK AO2
KD55 211655Z AUTO 29005KT 10SM CLR 28/14 A2998 RMK AO2
KD55 211635Z AUTO 31005KT 10SM CLR 27/14 A2999 RMK AO2
KD55 211615Z AUTO 31006KT 10SM CLR 27/15 A2999 RMK AO2
KD55 211555Z AUTO 32006KT 10SM CLR 27/14 A2999 RMK AO2
KD55 211535Z AUTO 31005KT 10SM CLR 27/16 A2998 RMK AO2
KD55 211515Z AUTO VRB05KT 10SM CLR 26/16 A2999 RMK AO2
KD55 211455Z AUTO 34006KT 10SM CLR 25/15 A2999 RMK AO2
KD55 211435Z AUTO 33005KT 10SM CLR 24/16 A3000 RMK AO2
KD55 211415Z AUTO 32004KT 10SM CLR 24/16 A2999 RMK AO2
KD55 211355Z AUTO 32004KT 10SM CLR 24/16 A3000 RMK AO2
KD55 211335Z AUTO 33005KT 10SM CLR 23/15 A3000 RMK AO2
KD55 211315Z AUTO 32003KT 10SM CLR 22/14 A3000 RMK AO2
KD55 211255Z AUTO 00000KT 10SM CLR 20/16 A3000 RMK AO2
KD55 211235Z AUTO 00000KT 10SM CLR 19/17 A2999 RMK AO2
KD55 211215Z AUTO 00000KT 10SM CLR 18/17 A2999 RMK AO2
KD55 211155Z AUTO 00000KT 10SM CLR 17/17 A2999 RMK AO2
KD55 211135Z AUTO 00000KT 10SM CLR 15/15 A2998 RMK AO2
KD55 211115Z AUTO 00000KT 10SM CLR 15/15 A2998 RMK AO2